sensor_id;sensor_type;location;lat;lon;timestamp;P1;durP1;ratioP1;P2;durP2;ratioP2
23720;SDS011;42950;52.134;5.578;2022-12-13T00:01:43;42.13;;;24.10;;
23720;SDS011;42950;52.134;5.578;2022-12-13T00:04:10;49.90;;;24.90;;
23720;SDS011;42950;52.134;5.578;2022-12-13T00:06:36;54.95;;;28.67;;
23720;SDS011;42950;52.134;5.578;2022-12-13T00:09:02;46.83;;;25.30;;
23720;SDS011;42950;52.134;5.578;2022-12-13T00:11:29;55.63;;;27.70;;
23720;SDS011;42950;52.134;5.578;2022-12-13T00:13:55;52.92;;;27.67;;
23720;SDS011;42950;52.134;5.578;2022-12-13T00:16:21;53.65;;;27.30;;
23720;SDS011;42950;52.134;5.578;2022-12-13T00:18:49;51.10;;;27.50;;
23720;SDS011;42950;52.134;5.578;2022-12-13T00:21:19;51.53;;;26.67;;
23720;SDS011;42950;52.134;5.578;2022-12-13T00:23:46;56.13;;;27.92;;
23720;SDS011;42950;52.134;5.578;2022-12-13T00:26:13;49.60;;;26.63;;
23720;SDS011;42950;52.134;5.578;2022-12-13T00:28:40;67.30;;;33.70;;
23720;SDS011;42950;52.134;5.578;2022-12-13T00:31:07;81.18;;;40.08;;
23720;SDS011;42950;52.134;5.578;2022-12-13T00:33:33;83.78;;;40.28;;
23720;SDS011;42950;52.134;5.578;2022-12-13T00:36:01;65.75;;;33.97;;
23720;SDS011;42950;52.134;5.578;2022-12-13T00:38:28;57.42;;;29.60;;
23720;SDS011;42950;52.134;5.578;2022-12-13T00:40:54;45.15;;;25.88;;
23720;SDS011;42950;52.134;5.578;2022-12-13T00:43:19;52.08;;;26.38;;
23720;SDS011;42950;52.134;5.578;2022-12-13T00:45:46;52.85;;;26.67;;
23720;SDS011;42950;52.134;5.578;2022-12-13T00:48:13;44.30;;;24.58;;
23720;SDS011;42950;52.134;5.578;2022-12-13T00:50:39;46.63;;;25.45;;
23720;SDS011;42950;52.134;5.578;2022-12-13T00:53:05;43.75;;;24.50;;
23720;SDS011;42950;52.134;5.578;2022-12-13T00:55:31;43.40;;;24.50;;
23720;SDS011;42950;52.134;5.578;2022-12-13T00:57:56;46.13;;;24.45;;
23720;SDS011;42950;52.134;5.578;2022-12-13T01:00:22;46.00;;;23.80;;
23720;SDS011;42950;52.134;5.578;2022-12-13T01:02:50;41.03;;;23.05;;
23720;SDS011;42950;52.134;5.578;2022-12-13T01:05:17;47.63;;;24.40;;
23720;SDS011;42950;52.134;5.578;2022-12-13T01:07:43;43.80;;;23.60;;
23720;SDS011;42950;52.134;5.578;2022-12-13T01:10:10;42.30;;;23.52;;
23720;SDS011;42950;52.134;5.578;2022-12-13T01:12:36;48.35;;;23.92;;
23720;SDS011;42950;52.134;5.578;2022-12-13T01:15:03;47.42;;;24.40;;
23720;SDS011;42950;52.134;5.578;2022-12-13T01:17:30;42.72;;;23.20;;
23720;SDS011;42950;52.134;5.578;2022-12-13T01:19:55;49.47;;;23.35;;
23720;SDS011;42950;52.134;5.578;2022-12-13T01:22:21;47.72;;;24.10;;
23720;SDS011;42950;52.134;5.578;2022-12-13T01:24:47;44.88;;;23.30;;
23720;SDS011;42950;52.134;5.578;2022-12-13T01:27:13;43.75;;;23.95;;
23720;SDS011;42950;52.134;5.578;2022-12-13T01:29:39;50.47;;;25.42;;
23720;SDS011;42950;52.134;5.578;2022-12-13T01:32:04;47.45;;;23.58;;
23720;SDS011;42950;52.134;5.578;2022-12-13T01:34:30;42.17;;;23.85;;
23720;SDS011;42950;52.134;5.578;2022-12-13T01:36:56;41.60;;;22.70;;
23720;SDS011;42950;52.134;5.578;2022-12-13T01:39:22;47.38;;;23.63;;
23720;SDS011;42950;52.134;5.578;2022-12-13T01:41:51;45.10;;;23.70;;
23720;SDS011;42950;52.134;5.578;2022-12-13T01:47:30;43.53;;;22.67;;
23720;SDS011;42950;52.134;5.578;2022-12-13T01:50:08;41.90;;;21.75;;
23720;SDS011;42950;52.134;5.578;2022-12-13T01:52:43;41.55;;;22.23;;
23720;SDS011;42950;52.134;5.578;2022-12-13T01:55:09;40.65;;;22.30;;
23720;SDS011;42950;52.134;5.578;2022-12-13T01:57:39;39.42;;;22.15;;
23720;SDS011;42950;52.134;5.578;2022-12-13T02:00:08;38.97;;;21.30;;
23720;SDS011;42950;52.134;5.578;2022-12-13T02:02:35;41.50;;;23.08;;
23720;SDS011;42950;52.134;5.578;2022-12-13T02:05:05;39.33;;;22.38;;
23720;SDS011;42950;52.134;5.578;2022-12-13T02:07:39;40.67;;;23.20;;
23720;SDS011;42950;52.134;5.578;2022-12-13T02:10:07;43.42;;;22.70;;
23720;SDS011;42950;52.134;5.578;2022-12-13T02:12:34;39.65;;;22.48;;
23720;SDS011;42950;52.134;5.578;2022-12-13T02:15:02;43.72;;;22.17;;
23720;SDS011;42950;52.134;5.578;2022-12-13T02:29:05;38.92;;;21.98;;
23720;SDS011;42950;52.134;5.578;2022-12-13T02:31:11;39.85;;;21.48;;
23720;SDS011;42950;52.134;5.578;2022-12-13T02:39:40;40.28;;;22.15;;
23720;SDS011;42950;52.134;5.578;2022-12-13T02:41:47;41.45;;;21.63;;
23720;SDS011;42950;52.134;5.578;2022-12-13T02:47:05;38.03;;;20.73;;
23720;SDS011;42950;52.134;5.578;2022-12-13T02:49:34;41.13;;;22.60;;
23720;SDS011;42950;52.134;5.578;2022-12-13T02:52:02;35.30;;;20.90;;
23720;SDS011;42950;52.134;5.578;2022-12-13T02:54:30;39.97;;;22.40;;
23720;SDS011;42950;52.134;5.578;2022-12-13T02:56:57;37.47;;;21.05;;
23720;SDS011;42950;52.134;5.578;2022-12-13T02:59:25;39.08;;;20.83;;
23720;SDS011;42950;52.134;5.578;2022-12-13T03:02:11;40.10;;;20.55;;
23720;SDS011;42950;52.134;5.578;2022-12-13T03:07:50;40.65;;;20.98;;
23720;SDS011;42950;52.134;5.578;2022-12-13T03:10:48;41.13;;;20.67;;
23720;SDS011;42950;52.134;5.578;2022-12-13T03:13:43;38.20;;;21.50;;
23720;SDS011;42950;52.134;5.578;2022-12-13T03:19:13;42.33;;;21.20;;
23720;SDS011;42950;52.134;5.578;2022-12-13T03:21:40;41.40;;;22.77;;
23720;SDS011;42950;52.134;5.578;2022-12-13T03:24:08;44.63;;;22.63;;
23720;SDS011;42950;52.134;5.578;2022-12-13T03:26:35;41.83;;;23.02;;
23720;SDS011;42950;52.134;5.578;2022-12-13T03:29:03;41.70;;;22.05;;
23720;SDS011;42950;52.134;5.578;2022-12-13T03:31:29;42.30;;;21.45;;
23720;SDS011;42950;52.134;5.578;2022-12-13T03:33:56;38.40;;;22.15;;
23720;SDS011;42950;52.134;5.578;2022-12-13T03:36:23;37.67;;;20.75;;
23720;SDS011;42950;52.134;5.578;2022-12-13T03:38:50;39.33;;;21.67;;
23720;SDS011;42950;52.134;5.578;2022-12-13T03:41:22;37.25;;;21.00;;
23720;SDS011;42950;52.134;5.578;2022-12-13T03:43:59;41.70;;;21.75;;
23720;SDS011;42950;52.134;5.578;2022-12-13T03:46:29;40.13;;;22.30;;
23720;SDS011;42950;52.134;5.578;2022-12-13T03:48:54;38.88;;;22.10;;
23720;SDS011;42950;52.134;5.578;2022-12-13T03:51:20;39.13;;;20.88;;
23720;SDS011;42950;52.134;5.578;2022-12-13T03:53:45;38.17;;;21.85;;
23720;SDS011;42950;52.134;5.578;2022-12-13T03:56:11;42.13;;;20.92;;
23720;SDS011;42950;52.134;5.578;2022-12-13T03:58:37;39.67;;;20.95;;
23720;SDS011;42950;52.134;5.578;2022-12-13T04:01:04;38.88;;;20.88;;
23720;SDS011;42950;52.134;5.578;2022-12-13T04:03:30;35.88;;;19.67;;
23720;SDS011;42950;52.134;5.578;2022-12-13T04:05:56;34.83;;;20.00;;
23720;SDS011;42950;52.134;5.578;2022-12-13T04:08:22;40.17;;;20.92;;
23720;SDS011;42950;52.134;5.578;2022-12-13T04:10:47;33.88;;;18.85;;
23720;SDS011;42950;52.134;5.578;2022-12-13T04:13:13;37.28;;;19.88;;
23720;SDS011;42950;52.134;5.578;2022-12-13T04:15:57;37.63;;;19.35;;
23720;SDS011;42950;52.134;5.578;2022-12-13T04:18:22;37.10;;;20.02;;
23720;SDS011;42950;52.134;5.578;2022-12-13T04:20:48;37.60;;;20.20;;
23720;SDS011;42950;52.134;5.578;2022-12-13T04:23:14;32.47;;;18.92;;
23720;SDS011;42950;52.134;5.578;2022-12-13T04:25:40;36.30;;;20.15;;
23720;SDS011;42950;52.134;5.578;2022-12-13T04:28:07;38.38;;;19.73;;
23720;SDS011;42950;52.134;5.578;2022-12-13T04:30:34;34.85;;;20.40;;
23720;SDS011;42950;52.134;5.578;2022-12-13T04:33:00;36.63;;;19.70;;
23720;SDS011;42950;52.134;5.578;2022-12-13T04:35:26;33.97;;;19.40;;
23720;SDS011;42950;52.134;5.578;2022-12-13T04:37:52;34.72;;;18.92;;
23720;SDS011;42950;52.134;5.578;2022-12-13T04:40:18;33.40;;;19.08;;
23720;SDS011;42950;52.134;5.578;2022-12-13T04:42:44;34.47;;;19.98;;
23720;SDS011;42950;52.134;5.578;2022-12-13T04:45:13;36.08;;;19.92;;
23720;SDS011;42950;52.134;5.578;2022-12-13T04:47:43;34.30;;;19.50;;
23720;SDS011;42950;52.134;5.578;2022-12-13T04:50:09;34.55;;;19.02;;
23720;SDS011;42950;52.134;5.578;2022-12-13T04:52:35;37.90;;;20.52;;
23720;SDS011;42950;52.134;5.578;2022-12-13T04:55:01;32.47;;;19.20;;
23720;SDS011;42950;52.134;5.578;2022-12-13T04:57:28;40.60;;;21.13;;
23720;SDS011;42950;52.134;5.578;2022-12-13T04:59:53;39.15;;;19.40;;
23720;SDS011;42950;52.134;5.578;2022-12-13T05:02:19;38.72;;;20.38;;
23720;SDS011;42950;52.134;5.578;2022-12-13T05:04:45;33.58;;;19.90;;
23720;SDS011;42950;52.134;5.578;2022-12-13T05:07:10;37.03;;;21.75;;
23720;SDS011;42950;52.134;5.578;2022-12-13T05:09:36;37.85;;;20.45;;
23720;SDS011;42950;52.134;5.578;2022-12-13T05:12:03;40.22;;;21.90;;
23720;SDS011;42950;52.134;5.578;2022-12-13T05:14:29;39.97;;;21.45;;
23720;SDS011;42950;52.134;5.578;2022-12-13T05:16:56;38.40;;;20.83;;
23720;SDS011;42950;52.134;5.578;2022-12-13T05:19:21;38.15;;;20.65;;
23720;SDS011;42950;52.134;5.578;2022-12-13T05:21:48;35.33;;;20.60;;
23720;SDS011;42950;52.134;5.578;2022-12-13T05:24:14;40.50;;;21.55;;
23720;SDS011;42950;52.134;5.578;2022-12-13T05:26:39;40.67;;;20.77;;
23720;SDS011;42950;52.134;5.578;2022-12-13T05:29:05;41.40;;;22.27;;
23720;SDS011;42950;52.134;5.578;2022-12-13T05:31:32;36.90;;;20.98;;
23720;SDS011;42950;52.134;5.578;2022-12-13T05:33:58;36.08;;;21.10;;
23720;SDS011;42950;52.134;5.578;2022-12-13T05:36:24;39.72;;;21.58;;
23720;SDS011;42950;52.134;5.578;2022-12-13T05:38:52;47.28;;;23.80;;
23720;SDS011;42950;52.134;5.578;2022-12-13T05:41:19;48.70;;;24.30;;
23720;SDS011;42950;52.134;5.578;2022-12-13T05:43:49;43.92;;;24.35;;
23720;SDS011;42950;52.134;5.578;2022-12-13T05:46:15;40.53;;;22.13;;
23720;SDS011;42950;52.134;5.578;2022-12-13T05:48:41;43.80;;;21.55;;
23720;SDS011;42950;52.134;5.578;2022-12-13T05:51:07;38.08;;;20.85;;
23720;SDS011;42950;52.134;5.578;2022-12-13T05:53:33;34.50;;;20.52;;
23720;SDS011;42950;52.134;5.578;2022-12-13T05:55:59;42.80;;;20.52;;
23720;SDS011;42950;52.134;5.578;2022-12-13T05:58:27;37.55;;;20.90;;
23720;SDS011;42950;52.134;5.578;2022-12-13T06:00:53;37.13;;;20.10;;
23720;SDS011;42950;52.134;5.578;2022-12-13T06:03:19;35.05;;;19.33;;
23720;SDS011;42950;52.134;5.578;2022-12-13T06:05:45;39.38;;;20.55;;
23720;SDS011;42950;52.134;5.578;2022-12-13T06:08:10;40.17;;;21.33;;
23720;SDS011;42950;52.134;5.578;2022-12-13T06:10:36;35.75;;;20.38;;
23720;SDS011;42950;52.134;5.578;2022-12-13T06:13:02;36.85;;;20.90;;
23720;SDS011;42950;52.134;5.578;2022-12-13T06:15:28;36.20;;;19.73;;
23720;SDS011;42950;52.134;5.578;2022-12-13T06:17:57;43.80;;;21.23;;
23720;SDS011;42950;52.134;5.578;2022-12-13T06:20:24;42.20;;;21.40;;
23720;SDS011;42950;52.134;5.578;2022-12-13T06:22:50;40.40;;;22.73;;
23720;SDS011;42950;52.134;5.578;2022-12-13T06:25:16;42.92;;;22.25;;
23720;SDS011;42950;52.134;5.578;2022-12-13T06:27:42;42.85;;;22.23;;
23720;SDS011;42950;52.134;5.578;2022-12-13T06:30:08;53.13;;;23.45;;
23720;SDS011;42950;52.134;5.578;2022-12-13T06:32:34;51.35;;;23.58;;
23720;SDS011;42950;52.134;5.578;2022-12-13T06:34:59;47.25;;;23.40;;
23720;SDS011;42950;52.134;5.578;2022-12-13T06:37:25;54.33;;;25.15;;
23720;SDS011;42950;52.134;5.578;2022-12-13T06:39:50;54.50;;;25.58;;
23720;SDS011;42950;52.134;5.578;2022-12-13T06:42:16;55.70;;;26.15;;
23720;SDS011;42950;52.134;5.578;2022-12-13T06:44:43;53.00;;;25.35;;
23720;SDS011;42950;52.134;5.578;2022-12-13T06:47:09;55.25;;;25.98;;
23720;SDS011;42950;52.134;5.578;2022-12-13T06:49:35;63.35;;;29.40;;
23720;SDS011;42950;52.134;5.578;2022-12-13T06:52:01;57.47;;;29.50;;
23720;SDS011;42950;52.134;5.578;2022-12-13T06:54:26;63.20;;;30.77;;
23720;SDS011;42950;52.134;5.578;2022-12-13T06:56:52;67.68;;;33.22;;
23720;SDS011;42950;52.134;5.578;2022-12-13T06:59:18;69.00;;;33.50;;
23720;SDS011;42950;52.134;5.578;2022-12-13T07:01:43;73.85;;;34.83;;
23720;SDS011;42950;52.134;5.578;2022-12-13T07:04:10;72.07;;;37.30;;
23720;SDS011;42950;52.134;5.578;2022-12-13T07:06:36;67.53;;;33.47;;
23720;SDS011;42950;52.134;5.578;2022-12-13T07:09:02;67.40;;;34.45;;
23720;SDS011;42950;52.134;5.578;2022-12-13T07:11:29;69.93;;;34.10;;
23720;SDS011;42950;52.134;5.578;2022-12-13T07:13:57;58.30;;;31.20;;
23720;SDS011;42950;52.134;5.578;2022-12-13T07:16:23;61.25;;;31.55;;
23720;SDS011;42950;52.134;5.578;2022-12-13T07:18:55;59.38;;;30.63;;
23720;SDS011;42950;52.134;5.578;2022-12-13T07:21:23;62.42;;;30.15;;
23720;SDS011;42950;52.134;5.578;2022-12-13T07:23:49;51.72;;;27.85;;
23720;SDS011;42950;52.134;5.578;2022-12-13T07:26:14;49.70;;;27.33;;
23720;SDS011;42950;52.134;5.578;2022-12-13T07:28:40;46.38;;;26.38;;
23720;SDS011;42950;52.134;5.578;2022-12-13T07:31:07;43.97;;;24.77;;
23720;SDS011;42950;52.134;5.578;2022-12-13T07:33:33;43.35;;;24.20;;
23720;SDS011;42950;52.134;5.578;2022-12-13T07:36:00;43.15;;;23.67;;
23720;SDS011;42950;52.134;5.578;2022-12-13T07:38:36;44.17;;;23.95;;
23720;SDS011;42950;52.134;5.578;2022-12-13T07:41:02;42.42;;;23.10;;
23720;SDS011;42950;52.134;5.578;2022-12-13T07:43:29;42.15;;;23.58;;
23720;SDS011;42950;52.134;5.578;2022-12-13T07:45:58;47.33;;;24.42;;
23720;SDS011;42950;52.134;5.578;2022-12-13T07:48:25;42.97;;;24.30;;
23720;SDS011;42950;52.134;5.578;2022-12-13T07:50:51;46.17;;;25.13;;
23720;SDS011;42950;52.134;5.578;2022-12-13T07:53:18;45.50;;;25.00;;
23720;SDS011;42950;52.134;5.578;2022-12-13T07:55:43;44.35;;;23.45;;
23720;SDS011;42950;52.134;5.578;2022-12-13T07:58:10;42.90;;;24.25;;
23720;SDS011;42950;52.134;5.578;2022-12-13T08:00:37;53.15;;;25.20;;
23720;SDS011;42950;52.134;5.578;2022-12-13T08:03:04;46.38;;;24.58;;
23720;SDS011;42950;52.134;5.578;2022-12-13T08:05:30;41.72;;;24.15;;
23720;SDS011;42950;52.134;5.578;2022-12-13T08:07:58;42.15;;;24.80;;
23720;SDS011;42950;52.134;5.578;2022-12-13T08:10:24;47.92;;;24.88;;
23720;SDS011;42950;52.134;5.578;2022-12-13T08:12:49;49.95;;;26.17;;
23720;SDS011;42950;52.134;5.578;2022-12-13T08:15:15;47.45;;;25.23;;
23720;SDS011;42950;52.134;5.578;2022-12-13T08:17:41;48.53;;;25.70;;
23720;SDS011;42950;52.134;5.578;2022-12-13T08:20:07;41.40;;;23.55;;
23720;SDS011;42950;52.134;5.578;2022-12-13T08:22:33;42.40;;;23.90;;
23720;SDS011;42950;52.134;5.578;2022-12-13T08:24:59;49.63;;;25.40;;
23720;SDS011;42950;52.134;5.578;2022-12-13T08:27:25;47.15;;;25.15;;
23720;SDS011;42950;52.134;5.578;2022-12-13T08:29:51;45.55;;;25.17;;
23720;SDS011;42950;52.134;5.578;2022-12-13T08:32:17;45.58;;;25.67;;
23720;SDS011;42950;52.134;5.578;2022-12-13T08:34:42;51.88;;;27.75;;
23720;SDS011;42950;52.134;5.578;2022-12-13T08:37:09;55.25;;;28.98;;
23720;SDS011;42950;52.134;5.578;2022-12-13T08:39:36;61.35;;;31.10;;
23720;SDS011;42950;52.134;5.578;2022-12-13T08:42:03;56.45;;;30.60;;
23720;SDS011;42950;52.134;5.578;2022-12-13T08:44:30;61.47;;;30.83;;
23720;SDS011;42950;52.134;5.578;2022-12-13T08:46:56;61.47;;;29.67;;
23720;SDS011;42950;52.134;5.578;2022-12-13T08:49:21;59.50;;;30.05;;
23720;SDS011;42950;52.134;5.578;2022-12-13T08:51:47;50.75;;;30.27;;
23720;SDS011;42950;52.134;5.578;2022-12-13T08:54:12;61.90;;;31.98;;
23720;SDS011;42950;52.134;5.578;2022-12-13T08:56:38;54.75;;;31.05;;
23720;SDS011;42950;52.134;5.578;2022-12-13T08:59:04;56.90;;;30.33;;
23720;SDS011;42950;52.134;5.578;2022-12-13T09:01:29;58.65;;;31.70;;
23720;SDS011;42950;52.134;5.578;2022-12-13T09:03:55;65.28;;;33.53;;
23720;SDS011;42950;52.134;5.578;2022-12-13T09:06:21;59.75;;;31.23;;
23720;SDS011;42950;52.134;5.578;2022-12-13T09:08:46;61.30;;;32.05;;
23720;SDS011;42950;52.134;5.578;2022-12-13T09:11:12;59.33;;;31.55;;
23720;SDS011;42950;52.134;5.578;2022-12-13T09:13:38;60.13;;;32.72;;
23720;SDS011;42950;52.134;5.578;2022-12-13T09:16:04;62.35;;;33.20;;
23720;SDS011;42950;52.134;5.578;2022-12-13T09:18:38;67.95;;;34.85;;
23720;SDS011;42950;52.134;5.578;2022-12-13T09:21:10;63.03;;;35.13;;
23720;SDS011;42950;52.134;5.578;2022-12-13T09:23:38;72.47;;;37.05;;
23720;SDS011;42950;52.134;5.578;2022-12-13T09:26:06;66.97;;;35.90;;
23720;SDS011;42950;52.134;5.578;2022-12-13T09:28:32;62.85;;;33.83;;
23720;SDS011;42950;52.134;5.578;2022-12-13T09:31:04;64.93;;;34.25;;
23720;SDS011;42950;52.134;5.578;2022-12-13T09:33:41;66.03;;;35.50;;
23720;SDS011;42950;52.134;5.578;2022-12-13T09:36:07;60.90;;;33.78;;
23720;SDS011;42950;52.134;5.578;2022-12-13T09:38:35;64.78;;;32.20;;
23720;SDS011;42950;52.134;5.578;2022-12-13T09:41:11;63.42;;;33.92;;
23720;SDS011;42950;52.134;5.578;2022-12-13T09:43:43;67.80;;;35.33;;
23720;SDS011;42950;52.134;5.578;2022-12-13T09:46:13;67.38;;;36.20;;
23720;SDS011;42950;52.134;5.578;2022-12-13T09:48:55;62.05;;;33.53;;
23720;SDS011;42950;52.134;5.578;2022-12-13T09:51:23;65.35;;;33.67;;
23720;SDS011;42950;52.134;5.578;2022-12-13T09:53:50;64.32;;;32.85;;
23720;SDS011;42950;52.134;5.578;2022-12-13T09:56:18;66.18;;;33.30;;
23720;SDS011;42950;52.134;5.578;2022-12-13T09:58:49;61.53;;;33.30;;
23720;SDS011;42950;52.134;5.578;2022-12-13T10:01:19;62.40;;;34.10;;
23720;SDS011;42950;52.134;5.578;2022-12-13T10:03:46;62.90;;;34.55;;
23720;SDS011;42950;52.134;5.578;2022-12-13T10:06:19;61.65;;;34.15;;
23720;SDS011;42950;52.134;5.578;2022-12-13T10:08:55;63.78;;;34.97;;
23720;SDS011;42950;52.134;5.578;2022-12-13T10:11:23;67.07;;;35.53;;
23720;SDS011;42950;52.134;5.578;2022-12-13T10:13:53;62.20;;;34.22;;
23720;SDS011;42950;52.134;5.578;2022-12-13T10:16:51;58.13;;;33.08;;
23720;SDS011;42950;52.134;5.578;2022-12-13T10:19:43;59.70;;;34.72;;
23720;SDS011;42950;52.134;5.578;2022-12-13T10:22:10;65.65;;;35.50;;
23720;SDS011;42950;52.134;5.578;2022-12-13T10:30:01;58.75;;;33.85;;
23720;SDS011;42950;52.134;5.578;2022-12-13T10:32:31;60.78;;;34.90;;
23720;SDS011;42950;52.134;5.578;2022-12-13T10:36:00;62.05;;;34.80;;
23720;SDS011;42950;52.134;5.578;2022-12-13T10:37:58;60.90;;;33.65;;
23720;SDS011;42950;52.134;5.578;2022-12-13T10:40:35;61.72;;;35.25;;
23720;SDS011;42950;52.134;5.578;2022-12-13T10:43:13;56.55;;;33.03;;
23720;SDS011;42950;52.134;5.578;2022-12-13T10:45:41;59.28;;;33.13;;
23720;SDS011;42950;52.134;5.578;2022-12-13T10:48:19;60.90;;;33.85;;
23720;SDS011;42950;52.134;5.578;2022-12-13T10:51:06;59.72;;;33.35;;
23720;SDS011;42950;52.134;5.578;2022-12-13T10:53:37;58.10;;;33.42;;
23720;SDS011;42950;52.134;5.578;2022-12-13T10:56:05;61.15;;;34.50;;
23720;SDS011;42950;52.134;5.578;2022-12-13T10:59:22;62.42;;;33.08;;
23720;SDS011;42950;52.134;5.578;2022-12-13T11:01:34;57.80;;;33.15;;
23720;SDS011;42950;52.134;5.578;2022-12-13T11:04:17;58.10;;;32.75;;
23720;SDS011;42950;52.134;5.578;2022-12-13T11:06:56;56.08;;;32.83;;
23720;SDS011;42950;52.134;5.578;2022-12-13T11:11:55;59.38;;;34.15;;
23720;SDS011;42950;52.134;5.578;2022-12-13T11:14:23;57.50;;;33.17;;
23720;SDS011;42950;52.134;5.578;2022-12-13T11:16:56;61.63;;;33.78;;
23720;SDS011;42950;52.134;5.578;2022-12-13T11:19:45;57.45;;;33.63;;
23720;SDS011;42950;52.134;5.578;2022-12-13T11:25:18;62.17;;;33.70;;
23720;SDS011;42950;52.134;5.578;2022-12-13T11:30:57;54.30;;;32.15;;
23720;SDS011;42950;52.134;5.578;2022-12-13T11:33:26;57.35;;;31.73;;
23720;SDS011;42950;52.134;5.578;2022-12-13T11:39:13;54.45;;;31.30;;
23720;SDS011;42950;52.134;5.578;2022-12-13T11:41:51;56.97;;;32.20;;
23720;SDS011;42950;52.134;5.578;2022-12-13T11:46:57;56.25;;;31.38;;
23720;SDS011;42950;52.134;5.578;2022-12-13T11:49:36;55.40;;;32.42;;
23720;SDS011;42950;52.134;5.578;2022-12-13T11:52:14;57.22;;;33.03;;
23720;SDS011;42950;52.134;5.578;2022-12-13T12:02:51;52.40;;;31.58;;
23720;SDS011;42950;52.134;5.578;2022-12-13T12:07:58;46.80;;;28.50;;
23720;SDS011;42950;52.134;5.578;2022-12-13T12:10:45;46.22;;;27.17;;
23720;SDS011;42950;52.134;5.578;2022-12-13T12:16:29;49.67;;;28.00;;
23720;SDS011;42950;52.134;5.578;2022-12-13T12:18:41;47.50;;;28.30;;
23720;SDS011;42950;52.134;5.578;2022-12-13T12:32:01;54.25;;;29.92;;
23720;SDS011;42950;52.134;5.578;2022-12-13T12:34:42;49.63;;;29.13;;
23720;SDS011;42950;52.134;5.578;2022-12-13T12:42:52;50.50;;;28.55;;
23720;SDS011;42950;52.134;5.578;2022-12-13T12:45:40;47.25;;;28.52;;
23720;SDS011;42950;52.134;5.578;2022-12-13T12:51:33;43.25;;;26.98;;
23720;SDS011;42950;52.134;5.578;2022-12-13T12:54:26;48.80;;;28.90;;
23720;SDS011;42950;52.134;5.578;2022-12-13T12:57:25;47.88;;;27.98;;
23720;SDS011;42950;52.134;5.578;2022-12-13T13:02:59;45.88;;;28.02;;
23720;SDS011;42950;52.134;5.578;2022-12-13T13:08:00;48.08;;;28.45;;
23720;SDS011;42950;52.134;5.578;2022-12-13T13:10:47;45.72;;;28.10;;
23720;SDS011;42950;52.134;5.578;2022-12-13T13:16:28;48.50;;;28.73;;
23720;SDS011;42950;52.134;5.578;2022-12-13T13:18:57;46.67;;;27.67;;
23720;SDS011;42950;52.134;5.578;2022-12-13T13:21:26;44.33;;;26.58;;
23720;SDS011;42950;52.134;5.578;2022-12-13T13:26:31;49.35;;;28.42;;
23720;SDS011;42950;52.134;5.578;2022-12-13T13:34:23;47.17;;;26.27;;
23720;SDS011;42950;52.134;5.578;2022-12-13T13:36:51;50.85;;;28.63;;
23720;SDS011;42950;52.134;5.578;2022-12-13T13:47:10;45.03;;;27.25;;
23720;SDS011;42950;52.134;5.578;2022-12-13T13:49:41;42.42;;;25.63;;
23720;SDS011;42950;52.134;5.578;2022-12-13T13:52:20;42.38;;;26.10;;
23720;SDS011;42950;52.134;5.578;2022-12-13T13:58:00;47.50;;;27.00;;
23720;SDS011;42950;52.134;5.578;2022-12-13T14:12:02;47.38;;;28.23;;
23720;SDS011;42950;52.134;5.578;2022-12-13T14:28:26;49.28;;;29.63;;
23720;SDS011;42950;52.134;5.578;2022-12-13T14:31:12;48.55;;;28.33;;
23720;SDS011;42950;52.134;5.578;2022-12-13T14:33:50;49.15;;;27.50;;
23720;SDS011;42950;52.134;5.578;2022-12-13T14:36:17;52.78;;;29.70;;
23720;SDS011;42950;52.134;5.578;2022-12-13T14:38:57;50.67;;;29.55;;
23720;SDS011;42950;52.134;5.578;2022-12-13T14:41:28;52.10;;;29.52;;
23720;SDS011;42950;52.134;5.578;2022-12-13T14:43:54;48.38;;;28.40;;
23720;SDS011;42950;52.134;5.578;2022-12-13T14:46:19;44.38;;;28.98;;
23720;SDS011;42950;52.134;5.578;2022-12-13T14:48:46;48.22;;;28.92;;
23720;SDS011;42950;52.134;5.578;2022-12-13T14:51:33;48.53;;;27.92;;
23720;SDS011;42950;52.134;5.578;2022-12-13T14:54:02;47.15;;;27.38;;
23720;SDS011;42950;52.134;5.578;2022-12-13T14:56:30;49.45;;;28.60;;
23720;SDS011;42950;52.134;5.578;2022-12-13T14:58:57;45.35;;;27.23;;
23720;SDS011;42950;52.134;5.578;2022-12-13T15:06:45;47.92;;;27.30;;
23720;SDS011;42950;52.134;5.578;2022-12-13T15:09:23;45.20;;;25.42;;
23720;SDS011;42950;52.134;5.578;2022-12-13T15:11:50;54.25;;;27.65;;
23720;SDS011;42950;52.134;5.578;2022-12-13T15:14:17;47.03;;;27.58;;
23720;SDS011;42950;52.134;5.578;2022-12-13T15:16:46;52.30;;;27.80;;
23720;SDS011;42950;52.134;5.578;2022-12-13T15:21:39;45.13;;;27.40;;
23720;SDS011;42950;52.134;5.578;2022-12-13T15:24:05;45.40;;;27.13;;
23720;SDS011;42950;52.134;5.578;2022-12-13T15:26:31;47.47;;;27.92;;
23720;SDS011;42950;52.134;5.578;2022-12-13T15:29:03;49.13;;;29.50;;
23720;SDS011;42950;52.134;5.578;2022-12-13T15:31:31;50.30;;;29.02;;
23720;SDS011;42950;52.134;5.578;2022-12-13T15:36:45;48.95;;;27.60;;
23720;SDS011;42950;52.134;5.578;2022-12-13T15:39:10;47.20;;;27.17;;
23720;SDS011;42950;52.134;5.578;2022-12-13T15:41:40;49.92;;;29.02;;
23720;SDS011;42950;52.134;5.578;2022-12-13T15:44:19;51.75;;;28.13;;
23720;SDS011;42950;52.134;5.578;2022-12-13T15:46:51;55.42;;;30.23;;
23720;SDS011;42950;52.134;5.578;2022-12-13T15:49:30;50.33;;;28.67;;
23720;SDS011;42950;52.134;5.578;2022-12-13T15:54:39;50.17;;;27.40;;
23720;SDS011;42950;52.134;5.578;2022-12-13T15:57:21;52.55;;;27.92;;
23720;SDS011;42950;52.134;5.578;2022-12-13T15:59:48;46.35;;;27.15;;
23720;SDS011;42950;52.134;5.578;2022-12-13T16:02:26;52.63;;;28.45;;
23720;SDS011;42950;52.134;5.578;2022-12-13T16:04:54;46.65;;;27.45;;
23720;SDS011;42950;52.134;5.578;2022-12-13T16:07:31;49.90;;;28.48;;
23720;SDS011;42950;52.134;5.578;2022-12-13T16:10:04;45.60;;;26.35;;
23720;SDS011;42950;52.134;5.578;2022-12-13T16:12:38;50.53;;;27.17;;
23720;SDS011;42950;52.134;5.578;2022-12-13T16:17:39;45.22;;;27.38;;
23720;SDS011;42950;52.134;5.578;2022-12-13T16:20:07;53.88;;;29.30;;
23720;SDS011;42950;52.134;5.578;2022-12-13T16:22:39;52.40;;;29.25;;
23720;SDS011;42950;52.134;5.578;2022-12-13T16:25:06;53.67;;;29.60;;
23720;SDS011;42950;52.134;5.578;2022-12-13T16:27:37;55.10;;;30.25;;
23720;SDS011;42950;52.134;5.578;2022-12-13T16:32:48;50.53;;;28.70;;
23720;SDS011;42950;52.134;5.578;2022-12-13T16:35:14;53.03;;;28.67;;
23720;SDS011;42950;52.134;5.578;2022-12-13T16:37:40;57.65;;;29.80;;
23720;SDS011;42950;52.134;5.578;2022-12-13T16:42:54;46.65;;;28.02;;
23720;SDS011;42950;52.134;5.578;2022-12-13T16:45:21;54.33;;;30.90;;
23720;SDS011;42950;52.134;5.578;2022-12-13T16:47:47;55.83;;;31.42;;
23720;SDS011;42950;52.134;5.578;2022-12-13T16:50:14;52.25;;;29.88;;
23720;SDS011;42950;52.134;5.578;2022-12-13T16:52:41;49.75;;;30.08;;
23720;SDS011;42950;52.134;5.578;2022-12-13T16:55:07;55.55;;;32.38;;
23720;SDS011;42950;52.134;5.578;2022-12-13T16:57:33;59.78;;;31.30;;
23720;SDS011;42950;52.134;5.578;2022-12-13T16:59:59;56.50;;;31.67;;
23720;SDS011;42950;52.134;5.578;2022-12-13T17:02:24;59.60;;;31.35;;
23720;SDS011;42950;52.134;5.578;2022-12-13T17:04:50;50.83;;;29.77;;
23720;SDS011;42950;52.134;5.578;2022-12-13T17:07:15;56.42;;;32.38;;
23720;SDS011;42950;52.134;5.578;2022-12-13T17:09:41;56.25;;;31.63;;